sensor_id;sensor_type;location;lat;lon;timestamp;pressure;altitude;pressure_sealevel;temperature;humidity
65832;BME280;52593;42.648;23.332;2023-02-22T00:00:25;94522.84;;;5.57;57.23
65832;BME280;52593;42.648;23.332;2023-02-22T00:03:05;94534.16;;;5.59;57.41
65832;BME280;52593;42.648;23.332;2023-02-22T00:05:32;94542.03;;;5.51;58.29
65832;BME280;52593;42.648;23.332;2023-02-22T00:07:57;94539.03;;;5.46;58.44
65832;BME280;52593;42.648;23.332;2023-02-22T00:10:25;94540.25;;;5.33;58.50
65832;BME280;52593;42.648;23.332;2023-02-22T00:12:52;94545.38;;;5.35;58.44
65832;BME280;52593;42.648;23.332;2023-02-22T00:15:20;94530.75;;;5.31;58.65
65832;BME280;52593;42.648;23.332;2023-02-22T00:17:46;94544.88;;;5.31;59.38
65832;BME280;52593;42.648;23.332;2023-02-22T00:20:13;94541.19;;;5.14;59.63
65832;BME280;52593;42.648;23.332;2023-02-22T00:22:40;94541.91;;;5.16;60.13
65832;BME280;52593;42.648;23.332;2023-02-22T00:25:06;94525.16;;;4.98;60.40
65832;BME280;52593;42.648;23.332;2023-02-22T00:27:31;94534.06;;;4.97;60.92
65832;BME280;52593;42.648;23.332;2023-02-22T00:29:56;94530.19;;;4.91;60.89
65832;BME280;52593;42.648;23.332;2023-02-22T00:32:23;94527.25;;;4.94;60.81
65832;BME280;52593;42.648;23.332;2023-02-22T00:34:51;94521.78;;;4.96;60.70
65832;BME280;52593;42.648;23.332;2023-02-22T00:37:17;94510.28;;;4.87;60.96
65832;BME280;52593;42.648;23.332;2023-02-22T00:39:49;94509.69;;;4.93;60.36
65832;BME280;52593;42.648;23.332;2023-02-22T00:42:16;94522.19;;;5.01;60.92
65832;BME280;52593;42.648;23.332;2023-02-22T00:44:42;94502.41;;;4.95;61.19
65832;BME280;52593;42.648;23.332;2023-02-22T00:47:07;94516.47;;;4.96;61.37
65832;BME280;52593;42.648;23.332;2023-02-22T00:49:33;94512.53;;;4.82;61.75
65832;BME280;52593;42.648;23.332;2023-02-22T00:51:59;94503.22;;;4.78;62.03
65832;BME280;52593;42.648;23.332;2023-02-22T00:54:24;94499.66;;;4.69;62.30
65832;BME280;52593;42.648;23.332;2023-02-22T00:56:50;94508.19;;;4.63;62.47
65832;BME280;52593;42.648;23.332;2023-02-22T00:59:15;94502.63;;;4.56;62.84
65832;BME280;52593;42.648;23.332;2023-02-22T01:01:41;94504.13;;;4.69;61.90
65832;BME280;52593;42.648;23.332;2023-02-22T01:04:07;94496.53;;;4.74;61.73
65832;BME280;52593;42.648;23.332;2023-02-22T01:06:33;94492.78;;;4.76;61.78
65832;BME280;52593;42.648;23.332;2023-02-22T01:08:58;94477.47;;;4.70;61.33
65832;BME280;52593;42.648;23.332;2023-02-22T01:11:24;94493.28;;;4.80;60.55
65832;BME280;52593;42.648;23.332;2023-02-22T01:13:49;94472.84;;;4.72;60.94
65832;BME280;52593;42.648;23.332;2023-02-22T01:16:18;94476.56;;;4.79;60.11
65832;BME280;52593;42.648;23.332;2023-02-22T01:18:44;94475.03;;;4.77;60.94
65832;BME280;52593;42.648;23.332;2023-02-22T01:21:10;94471.56;;;4.76;60.24
65832;BME280;52593;42.648;23.332;2023-02-22T01:23:35;94467.84;;;4.69;60.27
65832;BME280;52593;42.648;23.332;2023-02-22T01:26:01;94480.03;;;4.80;60.46
65832;BME280;52593;42.648;23.332;2023-02-22T01:28:30;94475.72;;;4.79;60.18
65832;BME280;52593;42.648;23.332;2023-02-22T01:30:55;94456.38;;;4.51;60.92
65832;BME280;52593;42.648;23.332;2023-02-22T01:33:20;94474.09;;;4.68;60.70
65832;BME280;52593;42.648;23.332;2023-02-22T01:35:46;94464.50;;;4.67;60.31
65832;BME280;52593;42.648;23.332;2023-02-22T01:38:12;94465.03;;;4.71;60.23
65832;BME280;52593;42.648;23.332;2023-02-22T01:40:41;94472.31;;;4.69;60.34
65832;BME280;52593;42.648;23.332;2023-02-22T01:43:17;94461.31;;;4.63;61.10
65832;BME280;52593;42.648;23.332;2023-02-22T01:45:54;94466.47;;;4.65;60.36
65832;BME280;52593;42.648;23.332;2023-02-22T01:48:27;94472.63;;;4.66;60.49
65832;BME280;52593;42.648;23.332;2023-02-22T01:51:24;94476.25;;;4.64;60.79
65832;BME280;52593;42.648;23.332;2023-02-22T01:54:01;94490.59;;;4.62;60.81
65832;BME280;52593;42.648;23.332;2023-02-22T01:56:29;94480.75;;;4.54;61.10
65832;BME280;52593;42.648;23.332;2023-02-22T01:59:02;94485.91;;;4.56;61.36
65832;BME280;52593;42.648;23.332;2023-02-22T02:01:28;94481.50;;;4.46;61.83
65832;BME280;52593;42.648;23.332;2023-02-22T02:03:56;94486.13;;;4.44;62.08
65832;BME280;52593;42.648;23.332;2023-02-22T02:06:25;94471.25;;;4.34;62.19
65832;BME280;52593;42.648;23.332;2023-02-22T02:09:11;94476.41;;;4.35;62.38
65832;BME280;52593;42.648;23.332;2023-02-22T02:11:39;94464.94;;;4.35;62.20
65832;BME280;52593;42.648;23.332;2023-02-22T02:14:06;94487.81;;;4.36;63.00
65832;BME280;52593;42.648;23.332;2023-02-22T02:16:44;94481.34;;;4.20;63.54
65832;BME280;52593;42.648;23.332;2023-02-22T02:19:33;94489.81;;;4.24;63.18
65832;BME280;52593;42.648;23.332;2023-02-22T02:30:55;94504.72;;;3.87;65.42
65832;BME280;52593;42.648;23.332;2023-02-22T02:33:53;94501.28;;;3.77;65.33
65832;BME280;52593;42.648;23.332;2023-02-22T02:39:13;94504.22;;;3.74;65.80
65832;BME280;52593;42.648;23.332;2023-02-22T02:41:48;94507.44;;;3.68;65.52
65832;BME280;52593;42.648;23.332;2023-02-22T02:44:38;94513.13;;;3.73;65.53
65832;BME280;52593;42.648;23.332;2023-02-22T02:47:09;94503.72;;;3.51;66.39
65832;BME280;52593;42.648;23.332;2023-02-22T02:49:43;94500.06;;;3.52;66.06
65832;BME280;52593;42.648;23.332;2023-02-22T02:52:11;94506.22;;;3.43;66.70
65832;BME280;52593;42.648;23.332;2023-02-22T02:54:38;94513.16;;;3.53;66.79
65832;BME280;52593;42.648;23.332;2023-02-22T02:57:05;94519.69;;;3.59;66.56
65832;BME280;52593;42.648;23.332;2023-02-22T02:59:34;94521.09;;;3.63;66.04
65832;BME280;52593;42.648;23.332;2023-02-22T03:12:54;94514.84;;;3.54;66.77
65832;BME280;52593;42.648;23.332;2023-02-22T03:21:03;94515.84;;;3.34;67.55
65832;BME280;52593;42.648;23.332;2023-02-22T03:23:41;94507.34;;;3.40;67.44
65832;BME280;52593;42.648;23.332;2023-02-22T03:26:16;94506.09;;;3.34;67.44
65832;BME280;52593;42.648;23.332;2023-02-22T03:28:50;94510.69;;;3.32;67.39
65832;BME280;52593;42.648;23.332;2023-02-22T03:31:22;94502.31;;;3.27;67.99
65832;BME280;52593;42.648;23.332;2023-02-22T03:33:53;94516.66;;;3.44;67.06
65832;BME280;52593;42.648;23.332;2023-02-22T03:36:26;94496.75;;;3.30;67.29
65832;BME280;52593;42.648;23.332;2023-02-22T03:38:56;94508.44;;;3.37;67.70
65832;BME280;52593;42.648;23.332;2023-02-22T03:41:23;94514.84;;;3.45;66.98
65832;BME280;52593;42.648;23.332;2023-02-22T03:43:57;94504.56;;;3.32;67.50
65832;BME280;52593;42.648;23.332;2023-02-22T03:46:26;94503.03;;;3.39;67.61
65832;BME280;52593;42.648;23.332;2023-02-22T03:48:58;94504.28;;;3.35;67.38
65832;BME280;52593;42.648;23.332;2023-02-22T03:51:26;94491.91;;;3.35;67.65
65832;BME280;52593;42.648;23.332;2023-02-22T03:53:51;94491.34;;;3.42;67.37
65832;BME280;52593;42.648;23.332;2023-02-22T03:56:38;94503.16;;;3.57;67.06
65832;BME280;52593;42.648;23.332;2023-02-22T03:59:11;94511.47;;;3.62;66.99
65832;BME280;52593;42.648;23.332;2023-02-22T04:01:37;94496.75;;;3.50;67.30
65832;BME280;52593;42.648;23.332;2023-02-22T04:04:03;94511.50;;;3.52;67.19
65832;BME280;52593;42.648;23.332;2023-02-22T04:06:28;94502.84;;;3.50;67.51
65832;BME280;52593;42.648;23.332;2023-02-22T04:08:54;94505.66;;;3.59;67.43
65832;BME280;52593;42.648;23.332;2023-02-22T04:11:19;94503.53;;;3.62;67.06
65832;BME280;52593;42.648;23.332;2023-02-22T04:13:45;94494.78;;;3.62;67.26
65832;BME280;52593;42.648;23.332;2023-02-22T04:16:10;94505.38;;;3.62;67.14
65832;BME280;52593;42.648;23.332;2023-02-22T04:18:35;94502.00;;;3.60;67.34
65832;BME280;52593;42.648;23.332;2023-02-22T04:21:01;94495.22;;;3.57;67.15
65832;BME280;52593;42.648;23.332;2023-02-22T04:23:27;94499.78;;;3.55;67.58
65832;BME280;52593;42.648;23.332;2023-02-22T04:25:52;94491.47;;;3.40;68.08
65832;BME280;52593;42.648;23.332;2023-02-22T04:28:18;94492.44;;;3.39;68.35
65832;BME280;52593;42.648;23.332;2023-02-22T04:30:44;94512.63;;;3.50;67.92
65832;BME280;52593;42.648;23.332;2023-02-22T04:33:10;94483.81;;;3.27;68.35
65832;BME280;52593;42.648;23.332;2023-02-22T04:35:35;94506.22;;;3.33;68.46
65832;BME280;52593;42.648;23.332;2023-02-22T04:38:00;94501.50;;;3.27;68.63
65832;BME280;52593;42.648;23.332;2023-02-22T04:40:27;94512.09;;;3.27;68.80
65832;BME280;52593;42.648;23.332;2023-02-22T04:42:52;94510.69;;;3.22;69.08
65832;BME280;52593;42.648;23.332;2023-02-22T04:45:17;94502.63;;;3.14;68.86
65832;BME280;52593;42.648;23.332;2023-02-22T04:47:43;94511.66;;;3.21;68.97
65832;BME280;52593;42.648;23.332;2023-02-22T04:50:10;94509.41;;;3.17;68.88
65832;BME280;52593;42.648;23.332;2023-02-22T04:52:35;94506.78;;;3.07;69.42
65832;BME280;52593;42.648;23.332;2023-02-22T04:55:01;94512.75;;;2.99;70.04
65832;BME280;52593;42.648;23.332;2023-02-22T04:57:26;94518.19;;;3.08;70.02
65832;BME280;52593;42.648;23.332;2023-02-22T04:59:52;94496.38;;;2.96;70.42
65832;BME280;52593;42.648;23.332;2023-02-22T05:02:18;94496.19;;;2.88;70.14
65832;BME280;52593;42.648;23.332;2023-02-22T05:04:44;94494.81;;;2.83;70.59
65832;BME280;52593;42.648;23.332;2023-02-22T05:07:09;94509.56;;;2.96;70.65
65832;BME280;52593;42.648;23.332;2023-02-22T05:09:35;94511.53;;;3.03;70.25
65832;BME280;52593;42.648;23.332;2023-02-22T05:12:00;94512.63;;;3.01;70.46
65832;BME280;52593;42.648;23.332;2023-02-22T05:14:25;94518.19;;;3.08;70.54
65832;BME280;52593;42.648;23.332;2023-02-22T05:16:54;94514.16;;;2.84;71.35
65832;BME280;52593;42.648;23.332;2023-02-22T05:19:20;94519.03;;;2.79;71.29
65832;BME280;52593;42.648;23.332;2023-02-22T05:21:45;94516.78;;;2.74;71.58
65832;BME280;52593;42.648;23.332;2023-02-22T05:24:10;94521.91;;;2.66;72.00
65832;BME280;52593;42.648;23.332;2023-02-22T05:26:36;94523.72;;;2.75;71.67
65832;BME280;52593;42.648;23.332;2023-02-22T05:29:01;94526.16;;;2.47;72.28
65832;BME280;52593;42.648;23.332;2023-02-22T05:31:26;94542.34;;;2.64;72.48
65832;BME280;52593;42.648;23.332;2023-02-22T05:33:52;94539.44;;;2.67;71.84
65832;BME280;52593;42.648;23.332;2023-02-22T05:36:17;94547.34;;;2.67;71.90
65832;BME280;52593;42.648;23.332;2023-02-22T05:38:42;94538.59;;;2.66;71.47
65832;BME280;52593;42.648;23.332;2023-02-22T05:41:10;94563.47;;;2.64;71.60
65832;BME280;52593;42.648;23.332;2023-02-22T05:43:37;94546.75;;;2.54;72.07
65832;BME280;52593;42.648;23.332;2023-02-22T05:46:03;94549.53;;;2.62;72.13
65832;BME280;52593;42.648;23.332;2023-02-22T05:48:29;94547.34;;;2.67;71.79
65832;BME280;52593;42.648;23.332;2023-02-22T05:50:55;94560.16;;;2.72;71.81
65832;BME280;52593;42.648;23.332;2023-02-22T05:53:21;94556.38;;;2.64;71.68
65832;BME280;52593;42.648;23.332;2023-02-22T05:55:48;94563.91;;;2.69;72.06
65832;BME280;52593;42.648;23.332;2023-02-22T05:58:14;94558.19;;;2.64;72.10
65832;BME280;52593;42.648;23.332;2023-02-22T06:00:39;94566.28;;;2.72;72.30
65832;BME280;52593;42.648;23.332;2023-02-22T06:03:07;94559.19;;;2.73;72.31
65832;BME280;52593;42.648;23.332;2023-02-22T06:05:33;94564.34;;;2.74;72.21
65832;BME280;52593;42.648;23.332;2023-02-22T06:08:00;94579.66;;;2.90;71.77
65832;BME280;52593;42.648;23.332;2023-02-22T06:10:27;94568.69;;;2.95;71.79
65832;BME280;52593;42.648;23.332;2023-02-22T06:12:53;94562.03;;;3.00;71.25
65832;BME280;52593;42.648;23.332;2023-02-22T06:15:21;94577.19;;;3.18;71.00
65832;BME280;52593;42.648;23.332;2023-02-22T06:17:47;94573.19;;;3.24;70.69
65832;BME280;52593;42.648;23.332;2023-02-22T06:20:16;94566.22;;;3.32;70.08
65832;BME280;52593;42.648;23.332;2023-02-22T06:22:41;94573.44;;;3.60;69.39
65832;BME280;52593;42.648;23.332;2023-02-22T06:25:08;94570.78;;;3.79;67.22
65832;BME280;52593;42.648;23.332;2023-02-22T06:27:34;94562.28;;;3.95;66.55
65832;BME280;52593;42.648;23.332;2023-02-22T06:30:02;94554.44;;;3.93;66.13
65832;BME280;52593;42.648;23.332;2023-02-22T06:32:28;94562.25;;;4.05;65.69
65832;BME280;52593;42.648;23.332;2023-02-22T06:34:53;94567.50;;;4.24;64.30
65832;BME280;52593;42.648;23.332;2023-02-22T06:37:18;94560.47;;;4.33;63.69
65832;BME280;52593;42.648;23.332;2023-02-22T06:39:44;94553.56;;;4.50;62.73
65832;BME280;52593;42.648;23.332;2023-02-22T06:42:09;94557.16;;;4.59;62.98
65832;BME280;52593;42.648;23.332;2023-02-22T06:44:34;94562.06;;;4.81;62.14
65832;BME280;52593;42.648;23.332;2023-02-22T06:47:00;94543.91;;;4.87;61.38
65832;BME280;52593;42.648;23.332;2023-02-22T06:49:26;94548.91;;;4.90;61.46
65832;BME280;52593;42.648;23.332;2023-02-22T06:51:52;94556.38;;;5.04;61.18
65832;BME280;52593;42.648;23.332;2023-02-22T06:54:19;94553.03;;;5.20;60.55
65832;BME280;52593;42.648;23.332;2023-02-22T06:56:44;94562.59;;;5.31;59.74
65832;BME280;52593;42.648;23.332;2023-02-22T06:59:10;94558.50;;;5.36;59.45
65832;BME280;52593;42.648;23.332;2023-02-22T07:01:35;94566.38;;;5.46;58.86
65832;BME280;52593;42.648;23.332;2023-02-22T07:04:01;94568.13;;;5.56;58.89
65832;BME280;52593;42.648;23.332;2023-02-22T07:06:26;94559.03;;;5.58;57.83
65832;BME280;52593;42.648;23.332;2023-02-22T07:08:52;94551.75;;;5.60;58.37
65832;BME280;52593;42.648;23.332;2023-02-22T07:11:18;94542.28;;;5.58;58.24
65832;BME280;52593;42.648;23.332;2023-02-22T07:13:44;94555.00;;;5.72;57.98
65832;BME280;52593;42.648;23.332;2023-02-22T07:16:12;94553.56;;;5.78;58.44
65832;BME280;52593;42.648;23.332;2023-02-22T07:18:38;94554.22;;;5.80;58.33
65832;BME280;52593;42.648;23.332;2023-02-22T07:21:04;94551.03;;;5.94;59.30
65832;BME280;52593;42.648;23.332;2023-02-22T07:23:29;94553.66;;;6.12;59.12
65832;BME280;52593;42.648;23.332;2023-02-22T07:25:58;94569.28;;;6.15;57.95
65832;BME280;52593;42.648;23.332;2023-02-22T07:28:23;94573.50;;;6.26;57.38
65832;BME280;52593;42.648;23.332;2023-02-22T07:30:49;94569.44;;;6.40;56.67
65832;BME280;52593;42.648;23.332;2023-02-22T07:33:14;94571.28;;;6.48;56.38
65832;BME280;52593;42.648;23.332;2023-02-22T07:35:45;94554.56;;;6.55;55.93
65832;BME280;52593;42.648;23.332;2023-02-22T07:38:13;94552.28;;;6.69;55.43
65832;BME280;52593;42.648;23.332;2023-02-22T07:40:40;94548.34;;;6.73;55.44
65832;BME280;52593;42.648;23.332;2023-02-22T07:43:22;94550.44;;;7.04;61.21
65832;BME280;52593;42.648;23.332;2023-02-22T07:45:50;94555.28;;;7.17;55.67
65832;BME280;52593;42.648;23.332;2023-02-22T07:48:17;94550.06;;;7.66;60.81
65832;BME280;52593;42.648;23.332;2023-02-22T07:50:43;94551.28;;;9.08;60.75
65832;BME280;52593;42.648;23.332;2023-02-22T07:53:24;94541.72;;;9.92;51.75
65832;BME280;52593;42.648;23.332;2023-02-22T07:55:50;94539.41;;;9.11;49.74
65832;BME280;52593;42.648;23.332;2023-02-22T07:58:19;94527.91;;;8.71;50.38
65832;BME280;52593;42.648;23.332;2023-02-22T08:00:45;94544.81;;;8.55;50.27
65832;BME280;52593;42.648;23.332;2023-02-22T08:03:16;94532.66;;;8.36;50.99
65832;BME280;52593;42.648;23.332;2023-02-22T08:05:45;94541.16;;;8.31;51.11
65832;BME280;52593;42.648;23.332;2023-02-22T08:08:11;94539.53;;;8.22;51.23
65832;BME280;52593;42.648;23.332;2023-02-22T08:10:38;94541.19;;;8.23;52.14
65832;BME280;52593;42.648;23.332;2023-02-22T08:13:04;94533.69;;;8.27;51.61
65832;BME280;52593;42.648;23.332;2023-02-22T08:15:40;94526.00;;;8.40;50.91
65832;BME280;52593;42.648;23.332;2023-02-22T08:18:08;94534.34;;;8.45;50.39
65832;BME280;52593;42.648;23.332;2023-02-22T08:20:35;94532.66;;;8.61;50.91
65832;BME280;52593;42.648;23.332;2023-02-22T08:23:00;94533.47;;;8.61;50.26
65832;BME280;52593;42.648;23.332;2023-02-22T08:25:28;94527.31;;;8.52;50.82
65832;BME280;52593;42.648;23.332;2023-02-22T08:27:58;94526.28;;;8.62;50.94
65832;BME280;52593;42.648;23.332;2023-02-22T08:30:26;94531.78;;;8.68;50.27
65832;BME280;52593;42.648;23.332;2023-02-22T08:32:53;94533.56;;;8.84;50.24
65832;BME280;52593;42.648;23.332;2023-02-22T08:35:19;94526.34;;;8.93;49.61
65832;BME280;52593;42.648;23.332;2023-02-22T08:37:47;94526.59;;;9.06;49.63
65832;BME280;52593;42.648;23.332;2023-02-22T08:40:14;94511.03;;;9.18;49.27
65832;BME280;52593;42.648;23.332;2023-02-22T08:42:42;94515.22;;;9.44;49.07
65832;BME280;52593;42.648;23.332;2023-02-22T08:45:07;94508.38;;;9.64;48.62
65832;BME280;52593;42.648;23.332;2023-02-22T08:47:34;94521.47;;;9.97;48.14
65832;BME280;52593;42.648;23.332;2023-02-22T08:49:59;94525.59;;;10.23;47.20
65832;BME280;52593;42.648;23.332;2023-02-22T08:52:24;94503.66;;;10.28;47.03
65832;BME280;52593;42.648;23.332;2023-02-22T08:54:50;94508.66;;;10.46;46.81
65832;BME280;52593;42.648;23.332;2023-02-22T08:57:15;94500.81;;;10.59;46.77
65832;BME280;52593;42.648;23.332;2023-02-22T08:59:40;94509.88;;;10.88;46.74
65832;BME280;52593;42.648;23.332;2023-02-22T09:02:17;94496.91;;;11.06;45.99
65832;BME280;52593;42.648;23.332;2023-02-22T09:04:44;94503.91;;;11.22;45.83
65832;BME280;52593;42.648;23.332;2023-02-22T09:07:09;94504.94;;;11.43;45.54
65832;BME280;52593;42.648;23.332;2023-02-22T09:09:35;94496.78;;;11.51;45.21
65832;BME280;52593;42.648;23.332;2023-02-22T09:12:01;94489.44;;;11.60;44.72
65832;BME280;52593;42.648;23.332;2023-02-22T09:14:26;94499.97;;;11.83;44.27
65832;BME280;52593;42.648;23.332;2023-02-22T09:16:52;94496.53;;;11.89;43.73
65832;BME280;52593;42.648;23.332;2023-02-22T09:19:18;94496.63;;;11.96;43.78
65832;BME280;52593;42.648;23.332;2023-02-22T09:21:44;94498.72;;;12.01;42.85
65832;BME280;52593;42.648;23.332;2023-02-22T09:24:09;94498.91;;;11.99;43.25
65832;BME280;52593;42.648;23.332;2023-02-22T09:26:36;94496.66;;;12.03;43.54
65832;BME280;52593;42.648;23.332;2023-02-22T09:29:07;94499.47;;;12.16;42.66
65832;BME280;52593;42.648;23.332;2023-02-22T09:31:36;94500.09;;;12.18;43.19
65832;BME280;52593;42.648;23.332;2023-02-22T09:34:03;94484.31;;;12.30;42.73
65832;BME280;52593;42.648;23.332;2023-02-22T09:36:30;94490.19;;;12.47;42.30
65832;BME280;52593;42.648;23.332;2023-02-22T09:38:56;94483.22;;;12.53;41.24
65832;BME280;52593;42.648;23.332;2023-02-22T09:41:31;94490.31;;;12.67;41.92
65832;BME280;52593;42.648;23.332;2023-02-22T09:46:39;94485.25;;;12.92;40.96
65832;BME280;52593;42.648;23.332;2023-02-22T09:49:19;94474.13;;;12.95;40.93
65832;BME280;52593;42.648;23.332;2023-02-22T09:51:54;94477.28;;;13.12;40.14
65832;BME280;52593;42.648;23.332;2023-02-22T09:54:43;94486.84;;;13.22;38.59
65832;BME280;52593;42.648;23.332;2023-02-22T09:57:18;94485.38;;;13.19;38.75
65832;BME280;52593;42.648;23.332;2023-02-22T10:05:31;94457.59;;;13.47;38.61
65832;BME280;52593;42.648;23.332;2023-02-22T10:08:00;94465.03;;;13.51;38.41
65832;BME280;52593;42.648;23.332;2023-02-22T10:10:34;94473.72;;;13.47;38.02
65832;BME280;52593;42.648;23.332;2023-02-22T10:13:07;94458.22;;;13.55;38.29
65832;BME280;52593;42.648;23.332;2023-02-22T10:21:06;94442.53;;;14.06;37.83
65832;BME280;52593;42.648;23.332;2023-02-22T10:26:22;94436.69;;;14.49;37.21
65832;BME280;52593;42.648;23.332;2023-02-22T10:29:04;94427.16;;;14.47;36.85
65832;BME280;52593;42.648;23.332;2023-02-22T10:31:39;94428.63;;;14.62;36.96
65832;BME280;52593;42.648;23.332;2023-02-22T10:34:12;94404.78;;;14.59;36.99
65832;BME280;52593;42.648;23.332;2023-02-22T10:36:38;94381.72;;;14.77;36.65
65832;BME280;52593;42.648;23.332;2023-02-22T10:39:27;94403.13;;;15.10;36.53
65832;BME280;52593;42.648;23.332;2023-02-22T10:41:56;94385.94;;;15.05;36.37
65832;BME280;52593;42.648;23.332;2023-02-22T10:44:22;94382.41;;;15.11;36.46
65832;BME280;52593;42.648;23.332;2023-02-22T10:46:48;94395.88;;;15.11;36.38
65832;BME280;52593;42.648;23.332;2023-02-22T10:49:20;94371.81;;;15.16;36.27
65832;BME280;52593;42.648;23.332;2023-02-22T10:52:01;94386.91;;;15.24;35.87
65832;BME280;52593;42.648;23.332;2023-02-22T10:54:38;94379.63;;;15.24;35.87
65832;BME280;52593;42.648;23.332;2023-02-22T10:57:05;94379.63;;;15.24;35.58
65832;BME280;52593;42.648;23.332;2023-02-22T10:59:36;94376.44;;;15.34;35.71
65832;BME280;52593;42.648;23.332;2023-02-22T11:02:18;94368.66;;;15.51;35.69
65832;BME280;52593;42.648;23.332;2023-02-22T11:04:50;94368.84;;;15.56;34.91
65832;BME280;52593;42.648;23.332;2023-02-22T11:07:22;94372.22;;;15.45;35.08
65832;BME280;52593;42.648;23.332;2023-02-22T11:09:55;94360.47;;;15.39;35.42
65832;BME280;52593;42.648;23.332;2023-02-22T11:12:34;94367.41;;;15.54;34.77
65832;BME280;52593;42.648;23.332;2023-02-22T11:17:48;94358.44;;;15.92;33.99
65832;BME280;52593;42.648;23.332;2023-02-22T11:20:26;94353.84;;;15.92;33.55
65832;BME280;52593;42.648;23.332;2023-02-22T11:23:00;94357.72;;;15.71;33.07
65832;BME280;52593;42.648;23.332;2023-02-22T11:25:32;94348.03;;;15.63;33.81
65832;BME280;52593;42.648;23.332;2023-02-22T11:28:10;94335.91;;;15.73;33.47
65832;BME280;52593;42.648;23.332;2023-02-22T11:30:40;94346.69;;;15.79;33.15
65832;BME280;52593;42.648;23.332;2023-02-22T11:33:20;94350.31;;;15.92;33.18
65832;BME280;52593;42.648;23.332;2023-02-22T11:35:57;94328.06;;;15.96;33.14
65832;BME280;52593;42.648;23.332;2023-02-22T11:38:31;94340.78;;;16.33;32.95
65832;BME280;52593;42.648;23.332;2023-02-22T11:41:16;94328.63;;;16.23;33.20
65832;BME280;52593;42.648;23.332;2023-02-22T11:43:44;94325.09;;;16.23;33.31
65832;BME280;52593;42.648;23.332;2023-02-22T11:46:16;94323.50;;;15.97;33.04
65832;BME280;52593;42.648;23.332;2023-02-22T11:49:08;94336.25;;;15.90;32.76
65832;BME280;52593;42.648;23.332;2023-02-22T12:14:22;94307.13;;;16.54;32.02
65832;BME280;52593;42.648;23.332;2023-02-22T12:17:24;94296.31;;;16.54;31.18
65832;BME280;52593;42.648;23.332;2023-02-22T12:20:03;94299.97;;;16.41;31.69
65832;BME280;52593;42.648;23.332;2023-02-22T12:22:34;94293.53;;;16.23;32.20
65832;BME280;52593;42.648;23.332;2023-02-22T12:25:15;94293.91;;;16.46;31.48
65832;BME280;52593;42.648;23.332;2023-02-22T12:30:33;94283.81;;;16.71;30.99
65832;BME280;52593;42.648;23.332;2023-02-22T12:33:25;94275.16;;;16.51;31.32
65832;BME280;52593;42.648;23.332;2023-02-22T12:35:54;94290.00;;;16.41;31.79
65832;BME280;52593;42.648;23.332;2023-02-22T12:38:31;94290.16;;;16.28;32.19
65832;BME280;52593;42.648;23.332;2023-02-22T12:41:22;94288.72;;;16.44;31.75
65832;BME280;52593;42.648;23.332;2023-02-22T12:44:08;94275.53;;;16.85;30.94
65832;BME280;52593;42.648;23.332;2023-02-22T12:46:40;94283.16;;;17.06;30.38
65832;BME280;52593;42.648;23.332;2023-02-22T12:49:19;94277.91;;;17.23;30.33
65832;BME280;52593;42.648;23.332;2023-02-22T12:54:47;94272.78;;;16.73;30.92
65832;BME280;52593;42.648;23.332;2023-02-22T12:57:28;94283.44;;;16.86;30.82
65832;BME280;52593;42.648;23.332;2023-02-22T13:02:49;94270.53;;;16.88;30.82
65832;BME280;52593;42.648;23.332;2023-02-22T13:05:18;94253.59;;;16.63;31.24
65832;BME280;52593;42.648;23.332;2023-02-22T13:18:48;94266.66;;;17.38;30.26
65832;BME280;52593;42.648;23.332;2023-02-22T13:24:05;94248.09;;;17.77;28.88
65832;BME280;52593;42.648;23.332;2023-02-22T13:27:35;94244.75;;;19.50;26.66
65832;BME280;52593;42.648;23.332;2023-02-22T13:30:03;94248.50;;;20.00;25.77
65832;BME280;52593;42.648;23.332;2023-02-22T13:32:39;94249.94;;;19.85;26.06
65832;BME280;52593;42.648;23.332;2023-02-22T13:38:06;94252.19;;;20.10;25.15
65832;BME280;52593;42.648;23.332;2023-02-22T13:40:58;94242.56;;;20.42;25.32
65832;BME280;52593;42.648;23.332;2023-02-22T13:46:14;94244.28;;;22.27;22.94
65832;BME280;52593;42.648;23.332;2023-02-22T13:51:53;94228.72;;;22.75;22.46
65832;BME280;52593;42.648;23.332;2023-02-22T13:57:16;94235.75;;;22.56;22.80
65832;BME280;52593;42.648;23.332;2023-02-22T13:59:43;94235.53;;;22.20;22.95
65832;BME280;52593;42.648;23.332;2023-02-22T14:02:31;94241.84;;;21.83;23.88
65832;BME280;52593;42.648;23.332;2023-02-22T14:04:59;94238.44;;;22.46;23.23
65832;BME280;52593;42.648;23.332;2023-02-22T14:09:55;94245.84;;;22.60;23.12
65832;BME280;52593;42.648;23.332;2023-02-22T14:17:48;94238.59;;;22.92;23.20
65832;BME280;52593;42.648;23.332;2023-02-22T14:20:37;94234.00;;;23.08;22.63
65832;BME280;52593;42.648;23.332;2023-02-22T14:25:54;94237.25;;;22.31;23.56
65832;BME280;52593;42.648;23.332;2023-02-22T14:34:16;94236.72;;;22.34;23.42
65832;BME280;52593;42.648;23.332;2023-02-22T14:36:55;94251.34;;;21.20;24.65
65832;BME280;52593;42.648;23.332;2023-02-22T14:39:33;94237.34;;;20.18;26.08
65832;BME280;52593;42.648;23.332;2023-02-22T14:47:27;94256.88;;;17.14;30.42
65832;BME280;52593;42.648;23.332;2023-02-22T14:50:03;94256.00;;;16.83;30.96
65832;BME280;52593;42.648;23.332;2023-02-22T14:52:33;94243.69;;;16.56;31.58
65832;BME280;52593;42.648;23.332;2023-02-22T14:55:10;94239.72;;;16.59;31.87
65832;BME280;52593;42.648;23.332;2023-02-22T14:57:41;94256.63;;;16.36;32.58
65832;BME280;52593;42.648;23.332;2023-02-22T15:03:02;94247.25;;;15.83;33.41
65832;BME280;52593;42.648;23.332;2023-02-22T15:05:34;94256.06;;;15.72;33.47
65832;BME280;52593;42.648;23.332;2023-02-22T15:08:05;94256.41;;;15.57;33.62
65832;BME280;52593;42.648;23.332;2023-02-22T15:10:45;94242.50;;;15.34;33.33
65832;BME280;52593;42.648;23.332;2023-02-22T15:13:21;94252.66;;;15.32;32.99
65832;BME280;52593;42.648;23.332;2023-02-22T15:16:11;94251.69;;;15.27;33.08
65832;BME280;52593;42.648;23.332;2023-02-22T15:18:42;94243.28;;;15.16;33.74
65832;BME280;52593;42.648;23.332;2023-02-22T15:21:11;94257.22;;;15.07;34.05